메인 페이지
METAR-TAF:

METAR-TAF

공항 :

무슈, 터키

위도: 38-45N, 경도: 041-40E, 고도: 1266m

현재 날씨관측

예보는 6 시간 1분 전, 12:50시(UTC)에 발표되었습니다.
남서3kt풍과 풍을 오가는
온도 21°C
습도 23%
기압 1020 hPa
시정 10km 이상
고도 3500ft 상공 구름 조금
고도 10000ft 상공 구름 보통
고도 20000ft 상공 구름 많음

METAR: LTCK 251250Z 23003KT 190V280 9999 FEW035 SCT100 BKN200 21/M01 Q1020

시각: 21:51 (18:51 UTC)

예보

예보는 5 시간 11분 전, 13:40시(UTC)에 발표되었습니다.
예보 대상 시간: 25일 15시부터 25일 24시까지 (UTC)
여러 방향의 바람 2kt
시정 10km 이상
고도 4000ft 상공 구름 조금
고도 15000ft 상공 구름 많음

TAF: LTCK 251340Z 2515/2524 VRB02KT 9999 FEW040 BKN150

4,000개 이상의 공항 관측 자료 및 예보 (METAR 및 TAF 보고).

지도상에서 검색 가능한 기상관측소가 노란 점과 빨간 점으로 표시되어 있습니다.

기상관측소 명을 보려면 표시 위로 마우스를 이동하세요.

날씨 관측과 예보를 보려면 클릭하세요.

지도 변경 : 확대하려면 엑스 표시가 있는 녹색 버튼, 축소하려면 빼기 표시가 있는 녹색 버튼, 다음 페이지의 지도를 보려면 녹색 화살표를 클릭하세요.


METAR-TAF: